sensor_id;sensor_type;location;lat;lon;timestamp;pressure;altitude;pressure_sealevel;temperature;humidity
54856;BME280;40748;53.168;5.800;2022-09-17T00:01:07;101110.74;;;12.88;64.52
54856;BME280;40748;53.168;5.800;2022-09-17T00:03:36;101115.83;;;12.72;64.53
54856;BME280;40748;53.168;5.800;2022-09-17T00:06:07;101118.3;;;12.79;65.43
54856;BME280;40748;53.168;5.800;2022-09-17T00:08:37;101119.02;;;12.73;64.92
54856;BME280;40748;53.168;5.800;2022-09-17T00:11:07;101127.06;;;12.61;65.32
54856;BME280;40748;53.168;5.800;2022-09-17T00:13:37;101122.92;;;12.49;64.50
54856;BME280;40748;53.168;5.800;2022-09-17T00:16:07;101131.02;;;12.44;65.49
54856;BME280;40748;53.168;5.800;2022-09-17T00:18:37;101135.85;;;12.39;66.29
54856;BME280;40748;53.168;5.800;2022-09-17T00:23:37;101131.23000000001;;;12.33;68.22
54856;BME280;40748;53.168;5.800;2022-09-17T00:26:07;101121.11;;;12.43;66.99
54856;BME280;40748;53.168;5.800;2022-09-17T00:28:37;101134.27;;;12.39;65.93
54856;BME280;40748;53.168;5.800;2022-09-17T00:31:07;101131.33;;;12.31;64.89
54856;BME280;40748;53.168;5.800;2022-09-17T00:33:37;101142.7;;;12.29;64.23
54856;BME280;40748;53.168;5.800;2022-09-17T00:36:07;101147.76000000001;;;12.36;64.27
54856;BME280;40748;53.168;5.800;2022-09-17T00:38:37;101160.36;;;12.26;64.37
54856;BME280;40748;53.168;5.800;2022-09-17T00:41:07;101161.69;;;12.27;65.69
54856;BME280;40748;53.168;5.800;2022-09-17T00:43:38;101156.17;;;12.32;65.43
54856;BME280;40748;53.168;5.800;2022-09-17T00:46:11;101155.74;;;12.35;65.73
54856;BME280;40748;53.168;5.800;2022-09-17T00:48:37;101151.23;;;12.27;66.61
54856;BME280;40748;53.168;5.800;2022-09-17T00:51:07;101151.08;;;12.25;67.15
54856;BME280;40748;53.168;5.800;2022-09-17T00:53:37;101143.42;;;12.20;68.27
54856;BME280;40748;53.168;5.800;2022-09-17T00:56:08;101137.92;;;12.35;68.10
54856;BME280;40748;53.168;5.800;2022-09-17T00:58:37;101140.37;;;12.48;66.76
54856;BME280;40748;53.168;5.800;2022-09-17T01:01:07;101138.5;;;12.50;66.37
54856;BME280;40748;53.168;5.800;2022-09-17T01:03:37;101145.22;;;12.52;65.84
54856;BME280;40748;53.168;5.800;2022-09-17T01:06:09;101138.16;;;12.43;65.41
54856;BME280;40748;53.168;5.800;2022-09-17T01:08:39;101143.55;;;12.41;65.79
54856;BME280;40748;53.168;5.800;2022-09-17T01:11:11;101143.66;;;12.39;65.52
54856;BME280;40748;53.168;5.800;2022-09-17T01:13:40;101149.89;;;12.27;65.73
54856;BME280;40748;53.168;5.800;2022-09-17T01:16:08;101150.09;;;12.32;65.94
54856;BME280;40748;53.168;5.800;2022-09-17T01:18:40;101151.05;;;12.16;65.80
54856;BME280;40748;53.168;5.800;2022-09-17T01:21:13;101146.92;;;12.21;67.53
54856;BME280;40748;53.168;5.800;2022-09-17T01:23:42;101143.14;;;12.24;66.45
54856;BME280;40748;53.168;5.800;2022-09-17T01:26:12;101144.19;;;12.28;66.44
54856;BME280;40748;53.168;5.800;2022-09-17T01:28:40;101143.94;;;12.29;66.41
54856;BME280;40748;53.168;5.800;2022-09-17T01:33:38;101140.06000000001;;;12.29;65.55
54856;BME280;40748;53.168;5.800;2022-09-17T01:36:11;101140.91;;;12.25;65.99
54856;BME280;40748;53.168;5.800;2022-09-17T01:38:39;101139.81;;;12.20;65.47
54856;BME280;40748;53.168;5.800;2022-09-17T01:41:07;101139.81;;;12.24;65.47
54856;BME280;40748;53.168;5.800;2022-09-17T01:43:37;101144.98;;;12.14;65.37
54856;BME280;40748;53.168;5.800;2022-09-17T01:46:08;101147.36;;;12.12;67.15
54856;BME280;40748;53.168;5.800;2022-09-17T01:48:38;101147.36;;;12.20;67.22
54856;BME280;40748;53.168;5.800;2022-09-17T01:51:08;101143.0;;;12.22;66.87
54856;BME280;40748;53.168;5.800;2022-09-17T01:53:38;101145.86;;;12.27;67.03
54856;BME280;40748;53.168;5.800;2022-09-17T01:56:07;101142.22;;;12.22;66.56
54856;BME280;40748;53.168;5.800;2022-09-17T01:58:37;101150.43;;;12.25;67.09
54856;BME280;40748;53.168;5.800;2022-09-17T02:01:07;101155.6;;;12.21;67.24
54856;BME280;40748;53.168;5.800;2022-09-17T02:03:38;101146.63;;;12.20;67.44
54856;BME280;40748;53.168;5.800;2022-09-17T02:06:08;101154.92;;;12.28;67.65
54856;BME280;40748;53.168;5.800;2022-09-17T02:08:38;101150.83;;;12.33;66.94
54856;BME280;40748;53.168;5.800;2022-09-17T02:11:07;101151.89;;;12.35;66.82
54856;BME280;40748;53.168;5.800;2022-09-17T02:13:37;101155.36;;;12.34;66.58
54856;BME280;40748;53.168;5.800;2022-09-17T02:16:08;101154.13;;;12.35;66.29
54856;BME280;40748;53.168;5.800;2022-09-17T02:18:38;101153.4;;;12.28;66.09
54856;BME280;40748;53.168;5.800;2022-09-17T02:21:07;101154.02;;;12.24;66.17
54856;BME280;40748;53.168;5.800;2022-09-17T02:23:39;101152.39;;;12.21;66.15
54856;BME280;40748;53.168;5.800;2022-09-17T02:26:08;101148.55;;;12.12;65.83
54856;BME280;40748;53.168;5.800;2022-09-17T02:28:40;101143.97;;;12.02;65.75
54856;BME280;40748;53.168;5.800;2022-09-17T02:31:07;101157.44;;;12.05;66.17
54856;BME280;40748;53.168;5.800;2022-09-17T02:33:37;101160.6;;;12.10;65.88
54856;BME280;40748;53.168;5.800;2022-09-17T02:36:07;101159.1;;;12.13;65.79
54856;BME280;40748;53.168;5.800;2022-09-17T02:38:37;101159.59;;;12.05;65.82
54856;BME280;40748;53.168;5.800;2022-09-17T02:41:10;101155.39;;;12.21;66.18
54856;BME280;40748;53.168;5.800;2022-09-17T02:43:39;101156.22;;;12.17;65.66
54856;BME280;40748;53.168;5.800;2022-09-17T02:46:11;101154.28;;;12.25;65.54
54856;BME280;40748;53.168;5.800;2022-09-17T02:48:42;101160.1;;;12.15;65.44
54856;BME280;40748;53.168;5.800;2022-09-17T02:51:10;101162.64;;;12.13;65.99
54856;BME280;40748;53.168;5.800;2022-09-17T02:53:38;101165.0;;;11.99;66.20
54856;BME280;40748;53.168;5.800;2022-09-17T02:58:37;101142.33;;;12.01;64.29
54856;BME280;40748;53.168;5.800;2022-09-17T03:01:08;101142.33;;;11.91;64.29
54856;BME280;40748;53.168;5.800;2022-09-17T03:03:38;101146.62;;;11.92;63.06
54856;BME280;40748;53.168;5.800;2022-09-17T03:06:07;101146.91;;;11.91;62.18
54856;BME280;40748;53.168;5.800;2022-09-17T03:08:38;101150.28;;;11.82;62.09
54856;BME280;40748;53.168;5.800;2022-09-17T03:11:07;101150.28;;;11.93;62.09
54856;BME280;40748;53.168;5.800;2022-09-17T03:16:07;101151.59;;;11.95;62.27
54856;BME280;40748;53.168;5.800;2022-09-17T03:18:37;101146.34;;;11.87;62.46
54856;BME280;40748;53.168;5.800;2022-09-17T03:21:07;101146.34;;;11.92;62.46
54856;BME280;40748;53.168;5.800;2022-09-17T03:23:37;101149.59999999999;;;11.88;62.43
54856;BME280;40748;53.168;5.800;2022-09-17T03:26:07;101143.14;;;11.76;62.65
54856;BME280;40748;53.168;5.800;2022-09-17T03:28:37;101143.28;;;11.67;63.27
54856;BME280;40748;53.168;5.800;2022-09-17T03:31:07;101146.17;;;11.72;63.57
54856;BME280;40748;53.168;5.800;2022-09-17T03:33:37;101148.27;;;11.74;63.43
54856;BME280;40748;53.168;5.800;2022-09-17T03:36:07;101148.75;;;11.78;63.47
54856;BME280;40748;53.168;5.800;2022-09-17T03:38:37;101152.71;;;11.85;63.31
54856;BME280;40748;53.168;5.800;2022-09-17T03:41:07;101152.71;;;11.77;63.31
54856;BME280;40748;53.168;5.800;2022-09-17T03:43:37;101156.0;;;11.82;63.85
54856;BME280;40748;53.168;5.800;2022-09-17T03:46:07;101153.67;;;11.84;63.59
54856;BME280;40748;53.168;5.800;2022-09-17T03:48:37;101145.31;;;11.93;63.68
54856;BME280;40748;53.168;5.800;2022-09-17T03:51:07;101148.20999999999;;;11.95;63.41
54856;BME280;40748;53.168;5.800;2022-09-17T03:56:07;101155.05;;;11.90;63.45
54856;BME280;40748;53.168;5.800;2022-09-17T03:58:37;101167.85;;;11.95;63.94
54856;BME280;40748;53.168;5.800;2022-09-17T04:01:07;101175.33;;;12.05;64.30
54856;BME280;40748;53.168;5.800;2022-09-17T04:03:37;101175.11;;;12.10;64.27
54856;BME280;40748;53.168;5.800;2022-09-17T04:06:07;101209.73;;;11.90;64.67
54856;BME280;40748;53.168;5.800;2022-09-17T04:08:37;101218.87000000001;;;11.79;68.16
54856;BME280;40748;53.168;5.800;2022-09-17T04:11:07;101212.05;;;11.70;69.60
54856;BME280;40748;53.168;5.800;2022-09-17T04:13:37;101211.06;;;11.77;68.80
54856;BME280;40748;53.168;5.800;2022-09-17T04:16:07;101182.36;;;11.78;67.94
54856;BME280;40748;53.168;5.800;2022-09-17T04:18:37;101182.36;;;11.86;68.22
54856;BME280;40748;53.168;5.800;2022-09-17T04:23:37;101177.84;;;11.97;67.23
54856;BME280;40748;53.168;5.800;2022-09-17T04:26:07;101173.53;;;11.99;66.29
54856;BME280;40748;53.168;5.800;2022-09-17T04:28:37;101176.75;;;11.97;65.79
54856;BME280;40748;53.168;5.800;2022-09-17T04:31:07;101172.11;;;11.93;65.50
54856;BME280;40748;53.168;5.800;2022-09-17T04:33:37;101168.16;;;11.82;65.32
54856;BME280;40748;53.168;5.800;2022-09-17T04:36:07;101165.59;;;11.71;65.37
54856;BME280;40748;53.168;5.800;2022-09-17T04:38:37;101177.91;;;11.68;65.64
54856;BME280;40748;53.168;5.800;2022-09-17T04:41:07;101178.71;;;11.67;65.74
54856;BME280;40748;53.168;5.800;2022-09-17T04:43:37;101177.25;;;11.63;65.48
54856;BME280;40748;53.168;5.800;2022-09-17T04:46:07;101175.5;;;11.59;65.53
54856;BME280;40748;53.168;5.800;2022-09-17T04:48:37;101183.56;;;11.50;65.58
54856;BME280;40748;53.168;5.800;2022-09-17T04:51:07;101184.84;;;11.31;65.78
54856;BME280;40748;53.168;5.800;2022-09-17T04:53:37;101184.74;;;11.34;67.05
54856;BME280;40748;53.168;5.800;2022-09-17T04:56:07;101185.91;;;11.36;66.52
54856;BME280;40748;53.168;5.800;2022-09-17T04:58:37;101183.26;;;11.31;66.54
54856;BME280;40748;53.168;5.800;2022-09-17T05:01:07;101183.51;;;11.23;67.44
54856;BME280;40748;53.168;5.800;2022-09-17T05:03:37;101193.45;;;11.18;68.51
54856;BME280;40748;53.168;5.800;2022-09-17T05:06:07;101199.45999999999;;;11.37;69.57
54856;BME280;40748;53.168;5.800;2022-09-17T05:08:37;101206.86;;;11.50;68.62
54856;BME280;40748;53.168;5.800;2022-09-17T05:11:07;101195.61;;;11.58;68.34
54856;BME280;40748;53.168;5.800;2022-09-17T05:13:37;101194.14;;;11.67;67.77
54856;BME280;40748;53.168;5.800;2022-09-17T05:16:07;101194.14;;;11.74;67.77
54856;BME280;40748;53.168;5.800;2022-09-17T05:18:37;101190.01;;;11.59;67.50
54856;BME280;40748;53.168;5.800;2022-09-17T05:23:37;101185.22;;;11.56;68.69
54856;BME280;40748;53.168;5.800;2022-09-17T05:26:07;101185.22;;;11.47;68.69
54856;BME280;40748;53.168;5.800;2022-09-17T05:28:37;101188.9;;;11.53;69.86
54856;BME280;40748;53.168;5.800;2022-09-17T05:31:07;101197.19;;;11.64;69.94
54856;BME280;40748;53.168;5.800;2022-09-17T05:33:37;101199.92;;;11.70;69.22
54856;BME280;40748;53.168;5.800;2022-09-17T05:36:07;101193.75;;;11.79;69.23
54856;BME280;40748;53.168;5.800;2022-09-17T05:38:37;101194.42;;;11.80;68.89
54856;BME280;40748;53.168;5.800;2022-09-17T05:41:07;101201.49;;;11.69;69.47
54856;BME280;40748;53.168;5.800;2022-09-17T05:43:37;101214.14;;;11.56;69.38
54856;BME280;40748;53.168;5.800;2022-09-17T05:46:07;101222.97;;;11.72;70.00
54856;BME280;40748;53.168;5.800;2022-09-17T05:48:37;101212.17;;;11.90;69.68
54856;BME280;40748;53.168;5.800;2022-09-17T05:51:07;101215.81999999999;;;11.98;68.63
54856;BME280;40748;53.168;5.800;2022-09-17T05:53:37;101201.26000000001;;;12.01;68.09
54856;BME280;40748;53.168;5.800;2022-09-17T05:56:07;101202.89;;;11.96;67.69
54856;BME280;40748;53.168;5.800;2022-09-17T05:58:37;101205.78;;;11.92;67.79
54856;BME280;40748;53.168;5.800;2022-09-17T06:01:07;101205.78;;;11.98;67.79
54856;BME280;40748;53.168;5.800;2022-09-17T06:03:37;101200.83;;;11.96;67.35
54856;BME280;40748;53.168;5.800;2022-09-17T06:06:07;101213.73;;;12.03;67.18
54856;BME280;40748;53.168;5.800;2022-09-17T06:08:37;101209.63;;;12.01;67.11
54856;BME280;40748;53.168;5.800;2022-09-17T06:11:07;101235.03;;;12.03;67.28
54856;BME280;40748;53.168;5.800;2022-09-17T06:13:37;101237.27;;;11.97;67.52
54856;BME280;40748;53.168;5.800;2022-09-17T06:16:07;101246.7;;;12.04;67.92
54856;BME280;40748;53.168;5.800;2022-09-17T06:18:37;101238.22;;;12.05;67.68
54856;BME280;40748;53.168;5.800;2022-09-17T06:21:07;101231.68;;;12.00;68.11
54856;BME280;40748;53.168;5.800;2022-09-17T06:23:37;101231.94;;;11.91;68.13
54856;BME280;40748;53.168;5.800;2022-09-17T06:26:07;101229.96;;;11.93;67.93
54856;BME280;40748;53.168;5.800;2022-09-17T06:28:37;101221.1;;;12.02;67.88
54856;BME280;40748;53.168;5.800;2022-09-17T06:31:07;101226.45999999999;;;12.08;67.61
54856;BME280;40748;53.168;5.800;2022-09-17T06:33:37;101224.8;;;12.13;67.65
54856;BME280;40748;53.168;5.800;2022-09-17T06:36:07;101219.58;;;12.14;67.60
54856;BME280;40748;53.168;5.800;2022-09-17T06:38:37;101225.42;;;12.06;68.24
54856;BME280;40748;53.168;5.800;2022-09-17T06:41:07;101236.25;;;12.21;70.12
54856;BME280;40748;53.168;5.800;2022-09-17T06:43:37;101236.25;;;12.36;70.12
54856;BME280;40748;53.168;5.800;2022-09-17T06:46:08;101233.84;;;12.59;69.54
54856;BME280;40748;53.168;5.800;2022-09-17T06:48:37;101233.48;;;12.68;68.50
54856;BME280;40748;53.168;5.800;2022-09-17T06:51:07;101235.05;;;12.65;68.03
54856;BME280;40748;53.168;5.800;2022-09-17T06:53:37;101240.94;;;12.74;67.70
54856;BME280;40748;53.168;5.800;2022-09-17T06:56:07;101236.37999999999;;;12.76;67.15
54856;BME280;40748;53.168;5.800;2022-09-17T06:58:37;101242.17;;;12.66;66.97
54856;BME280;40748;53.168;5.800;2022-09-17T07:01:07;101292.13;;;12.34;66.96
54856;BME280;40748;53.168;5.800;2022-09-17T07:03:37;101292.13;;;12.48;70.60
54856;BME280;40748;53.168;5.800;2022-09-17T07:06:07;101262.95;;;12.54;68.95
54856;BME280;40748;53.168;5.800;2022-09-17T07:08:37;101267.64;;;12.41;67.70
54856;BME280;40748;53.168;5.800;2022-09-17T07:11:07;101265.19;;;12.26;67.61
54856;BME280;40748;53.168;5.800;2022-09-17T07:13:37;101272.31;;;12.33;67.49
54856;BME280;40748;53.168;5.800;2022-09-17T07:16:08;101257.2;;;12.29;67.01
54856;BME280;40748;53.168;5.800;2022-09-17T07:18:37;101253.59;;;12.40;67.21
54856;BME280;40748;53.168;5.800;2022-09-17T07:21:08;101253.68999999999;;;12.44;66.87
54856;BME280;40748;53.168;5.800;2022-09-17T07:23:37;101246.37;;;12.46;66.71
54856;BME280;40748;53.168;5.800;2022-09-17T07:26:09;101249.99;;;12.50;66.79
54856;BME280;40748;53.168;5.800;2022-09-17T07:28:37;101250.51;;;12.62;67.06
54856;BME280;40748;53.168;5.800;2022-09-17T07:31:07;101249.92;;;12.75;67.13
54856;BME280;40748;53.168;5.800;2022-09-17T07:33:37;101252.37;;;13.12;67.95
54856;BME280;40748;53.168;5.800;2022-09-17T07:36:08;101256.84999999999;;;13.62;69.13
54856;BME280;40748;53.168;5.800;2022-09-17T07:38:37;101275.94;;;13.89;68.75
54856;BME280;40748;53.168;5.800;2022-09-17T07:41:08;101281.5;;;13.86;67.54
54856;BME280;40748;53.168;5.800;2022-09-17T07:46:07;101272.14;;;13.82;66.43
54856;BME280;40748;53.168;5.800;2022-09-17T07:48:37;101275.28;;;13.56;65.94
54856;BME280;40748;53.168;5.800;2022-09-17T07:51:07;101268.5;;;13.49;66.41
54856;BME280;40748;53.168;5.800;2022-09-17T07:53:37;101260.22;;;13.68;66.78
54856;BME280;40748;53.168;5.800;2022-09-17T07:56:07;101256.16;;;14.34;68.89
54856;BME280;40748;53.168;5.800;2022-09-17T07:58:37;101256.16;;;15.03;71.01
54856;BME280;40748;53.168;5.800;2022-09-17T08:01:08;101254.65000000001;;;15.36;67.97
54856;BME280;40748;53.168;5.800;2022-09-17T08:03:37;101257.72;;;15.43;67.06
54856;BME280;40748;53.168;5.800;2022-09-17T08:06:07;101250.48000000001;;;15.44;65.54
54856;BME280;40748;53.168;5.800;2022-09-17T08:08:37;101236.81;;;15.13;63.97
54856;BME280;40748;53.168;5.800;2022-09-17T08:11:08;101239.71;;;15.00;63.92
54856;BME280;40748;53.168;5.800;2022-09-17T08:16:07;101242.33;;;15.44;65.35
54856;BME280;40748;53.168;5.800;2022-09-17T08:18:37;101248.1;;;16.18;67.19
54856;BME280;40748;53.168;5.800;2022-09-17T08:21:08;101247.91;;;16.53;66.93
54856;BME280;40748;53.168;5.800;2022-09-17T08:23:37;101243.42;;;16.70;65.75
54856;BME280;40748;53.168;5.800;2022-09-17T08:26:08;101243.42;;;16.61;65.53
54856;BME280;40748;53.168;5.800;2022-09-17T08:28:37;101232.03;;;16.75;63.42
54856;BME280;40748;53.168;5.800;2022-09-17T08:31:07;101247.49;;;16.56;61.67
54856;BME280;40748;53.168;5.800;2022-09-17T08:33:37;101241.88;;;16.27;61.39
54856;BME280;40748;53.168;5.800;2022-09-17T08:36:07;101238.13;;;16.18;60.31
54856;BME280;40748;53.168;5.800;2022-09-17T08:38:37;101248.19;;;15.74;60.26
54856;BME280;40748;53.168;5.800;2022-09-17T08:41:11;101242.19;;;15.60;60.63
54856;BME280;40748;53.168;5.800;2022-09-17T08:43:38;101242.19;;;16.04;61.46
54856;BME280;40748;53.168;5.800;2022-09-17T08:46:07;101242.5;;;16.65;63.53
54856;BME280;40748;53.168;5.800;2022-09-17T08:48:38;101237.87;;;17.18;62.67
54856;BME280;40748;53.168;5.800;2022-09-17T08:51:07;101265.06000000001;;;17.32;60.01
54856;BME280;40748;53.168;5.800;2022-09-17T08:53:39;101243.31;;;17.79;58.83
54856;BME280;40748;53.168;5.800;2022-09-17T08:56:09;101243.31;;;18.41;53.87
54856;BME280;40748;53.168;5.800;2022-09-17T08:58:42;101246.67;;;19.05;52.90
54856;BME280;40748;53.168;5.800;2022-09-17T09:01:11;101255.75;;;18.94;53.45
54856;BME280;40748;53.168;5.800;2022-09-17T09:03:39;101244.7;;;19.45;51.36
54856;BME280;40748;53.168;5.800;2022-09-17T09:06:07;101253.5;;;20.04;53.12
54856;BME280;40748;53.168;5.800;2022-09-17T09:08:37;101243.2;;;20.15;55.04
54856;BME280;40748;53.168;5.800;2022-09-17T09:11:10;101236.36;;;20.56;49.75
54856;BME280;40748;53.168;5.800;2022-09-17T09:13:38;101251.29;;;19.90;53.65
54856;BME280;40748;53.168;5.800;2022-09-17T09:16:09;101242.01000000001;;;20.11;50.25
54856;BME280;40748;53.168;5.800;2022-09-17T09:18:37;101231.56;;;19.95;45.16
54856;BME280;40748;53.168;5.800;2022-09-17T09:21:11;101242.11;;;19.56;46.35
54856;BME280;40748;53.168;5.800;2022-09-17T09:23:40;101252.92;;;19.36;46.75
54856;BME280;40748;53.168;5.800;2022-09-17T09:26:09;101252.92;;;18.98;48.54
54856;BME280;40748;53.168;5.800;2022-09-17T09:28:41;101248.82;;;19.88;47.74
54856;BME280;40748;53.168;5.800;2022-09-17T09:31:12;101252.8;;;20.20;51.81
54856;BME280;40748;53.168;5.800;2022-09-17T09:33:38;101248.47;;;20.57;50.40
54856;BME280;40748;53.168;5.800;2022-09-17T09:36:09;101255.83;;;20.58;49.97
54856;BME280;40748;53.168;5.800;2022-09-17T09:38:37;101250.07;;;19.24;49.39
54856;BME280;40748;53.168;5.800;2022-09-17T09:41:07;101274.8;;;18.24;47.06
54856;BME280;40748;53.168;5.800;2022-09-17T09:43:38;101295.93;;;18.46;51.56
54856;BME280;40748;53.168;5.800;2022-09-17T09:46:12;101280.81;;;18.00;51.41
54856;BME280;40748;53.168;5.800;2022-09-17T09:48:37;101281.44;;;18.03;51.04
54856;BME280;40748;53.168;5.800;2022-09-17T09:51:10;101281.44;;;17.41;51.04
54856;BME280;40748;53.168;5.800;2022-09-17T09:53:40;101279.04999999999;;;17.74;53.26
54856;BME280;40748;53.168;5.800;2022-09-17T09:56:23;101280.88;;;18.15;54.10
54856;BME280;40748;53.168;5.800;2022-09-17T09:58:37;101273.56999999999;;;18.47;54.54
54856;BME280;40748;53.168;5.800;2022-09-17T10:01:09;101269.39;;;18.98;52.71
54856;BME280;40748;53.168;5.800;2022-09-17T10:03:37;101267.66;;;19.14;51.09
54856;BME280;40748;53.168;5.800;2022-09-17T10:06:07;101272.06;;;19.29;50.19
54856;BME280;40748;53.168;5.800;2022-09-17T10:08:38;101279.06;;;19.32;50.61
54856;BME280;40748;53.168;5.800;2022-09-17T10:11:15;101277.91;;;20.20;51.49
54856;BME280;40748;53.168;5.800;2022-09-17T10:13:37;101279.21;;;20.17;53.59
54856;BME280;40748;53.168;5.800;2022-09-17T10:16:14;101298.77;;;20.33;51.83
54856;BME280;40748;53.168;5.800;2022-09-17T10:18:37;101295.68000000001;;;20.37;50.45
54856;BME280;40748;53.168;5.800;2022-09-17T10:21:07;101287.98000000001;;;19.69;49.81
54856;BME280;40748;53.168;5.800;2022-09-17T10:23:37;101304.31999999999;;;19.79;49.72
54856;BME280;40748;53.168;5.800;2022-09-17T10:28:42;101305.48999999999;;;20.00;51.59
54856;BME280;40748;53.168;5.800;2022-09-17T10:31:07;101298.94;;;19.75;50.67
54856;BME280;40748;53.168;5.800;2022-09-17T10:33:38;101310.63;;;19.55;50.15
54856;BME280;40748;53.168;5.800;2022-09-17T10:36:07;101310.63;;;18.81;49.25
54856;BME280;40748;53.168;5.800;2022-09-17T10:38:37;101310.41;;;18.60;49.67
54856;BME280;40748;53.168;5.800;2022-09-17T10:41:09;101309.28;;;18.52;50.12
54856;BME280;40748;53.168;5.800;2022-09-17T10:43:37;101298.15;;;18.16;50.25
54856;BME280;40748;53.168;5.800;2022-09-17T10:46:08;101303.16;;;17.92;50.30
54856;BME280;40748;53.168;5.800;2022-09-17T10:48:38;101308.67;;;17.00;50.39
54856;BME280;40748;53.168;5.800;2022-09-17T10:51:07;101302.58;;;17.13;53.36
54856;BME280;40748;53.168;5.800;2022-09-17T10:53:51;101301.45999999999;;;17.22;53.94
54856;BME280;40748;53.168;5.800;2022-09-17T10:56:09;101293.12999999999;;;16.83;52.39
54856;BME280;40748;53.168;5.800;2022-09-17T10:58:42;101281.62;;;16.77;53.71
54856;BME280;40748;53.168;5.800;2022-09-17T11:01:09;101277.25;;;17.14;54.06
54856;BME280;40748;53.168;5.800;2022-09-17T11:06:12;101276.89;;;18.28;56.49
54856;BME280;40748;53.168;5.800;2022-09-17T11:08:38;101268.8;;;19.21;56.93
54856;BME280;40748;53.168;5.800;2022-09-17T11:11:08;101302.64;;;18.81;58.01
54856;BME280;40748;53.168;5.800;2022-09-17T11:13:38;101301.06;;;18.19;53.23
54856;BME280;40748;53.168;5.800;2022-09-17T11:16:10;101303.06;;;17.65;52.19
54856;BME280;40748;53.168;5.800;2022-09-17T11:18:38;101306.67;;;17.30;52.45
54856;BME280;40748;53.168;5.800;2022-09-17T11:21:12;101281.48;;;17.38;52.28
54856;BME280;40748;53.168;5.800;2022-09-17T11:23:43;101288.35;;;17.27;51.70
54856;BME280;40748;53.168;5.800;2022-09-17T11:26:09;101290.81;;;16.50;51.69
54856;BME280;40748;53.168;5.800;2022-09-17T11:28:40;101279.02;;;16.17;54.12
54856;BME280;40748;53.168;5.800;2022-09-17T11:31:11;101277.94;;;16.49;55.67
54856;BME280;40748;53.168;5.800;2022-09-17T11:33:41;101267.5;;;16.91;54.83
54856;BME280;40748;53.168;5.800;2022-09-17T11:36:09;101274.0;;;17.20;56.06
54856;BME280;40748;53.168;5.800;2022-09-17T11:38:37;101259.19;;;17.71;57.24
54856;BME280;40748;53.168;5.800;2022-09-17T11:41:09;101259.19;;;18.36;57.33
54856;BME280;40748;53.168;5.800;2022-09-17T11:43:38;101255.98;;;18.72;54.96
54856;BME280;40748;53.168;5.800;2022-09-17T11:46:07;101265.12;;;19.48;51.15
54856;BME280;40748;53.168;5.800;2022-09-17T11:48:38;101266.09;;;19.73;50.95
54856;BME280;40748;53.168;5.800;2022-09-17T11:51:11;101257.0;;;20.10;49.17
54856;BME280;40748;53.168;5.800;2022-09-17T11:53:39;101250.83;;;20.65;46.26
54856;BME280;40748;53.168;5.800;2022-09-17T11:56:09;101248.15999999999;;;20.68;47.78
54856;BME280;40748;53.168;5.800;2022-09-17T11:58:39;101251.34000000001;;;20.87;44.24
54856;BME280;40748;53.168;5.800;2022-09-17T12:01:08;101252.17;;;21.58;43.10
54856;BME280;40748;53.168;5.800;2022-09-17T12:03:39;101252.17;;;21.73;43.10
54856;BME280;40748;53.168;5.800;2022-09-17T12:06:08;101258.04000000001;;;21.76;42.96
54856;BME280;40748;53.168;5.800;2022-09-17T12:08:38;101251.17;;;22.46;43.82
54856;BME280;40748;53.168;5.800;2022-09-17T12:11:09;101246.8;;;22.28;41.46
54856;BME280;40748;53.168;5.800;2022-09-17T12:13:39;101246.8;;;22.44;41.46
54856;BME280;40748;53.168;5.800;2022-09-17T12:16:09;101249.47;;;22.74;39.71
54856;BME280;40748;53.168;5.800;2022-09-17T12:18:43;101244.08;;;23.18;38.52
54856;BME280;40748;53.168;5.800;2022-09-17T12:21:07;101253.8;;;22.93;41.21
54856;BME280;40748;53.168;5.800;2022-09-17T12:23:38;101260.19;;;23.21;35.61
54856;BME280;40748;53.168;5.800;2022-09-17T12:26:10;101258.51;;;23.03;38.50
54856;BME280;40748;53.168;5.800;2022-09-17T12:28:38;101258.51;;;22.85;38.50
54856;BME280;40748;53.168;5.800;2022-09-17T12:31:09;101265.02;;;21.64;38.66
54856;BME280;40748;53.168;5.800;2022-09-17T12:33:38;101273.53;;;21.24;35.62
54856;BME280;40748;53.168;5.800;2022-09-17T12:36:11;101292.48999999999;;;20.87;37.84
54856;BME280;40748;53.168;5.800;2022-09-17T12:38:44;101292.48999999999;;;20.61;38.31
54856;BME280;40748;53.168;5.800;2022-09-17T12:41:08;101287.22;;;20.33;38.90
54856;BME280;40748;53.168;5.800;2022-09-17T12:43:40;101284.06999999999;;;20.06;39.60
54856;BME280;40748;53.168;5.800;2022-09-17T12:46:12;101286.03;;;20.08;41.66
54856;BME280;40748;53.168;5.800;2022-09-17T12:48:40;101287.86;;;20.28;42.92
54856;BME280;40748;53.168;5.800;2022-09-17T12:51:10;101300.9;;;20.56;43.74
54856;BME280;40748;53.168;5.800;2022-09-17T12:53:39;101288.62000000001;;;20.52;44.07
54856;BME280;40748;53.168;5.800;2022-09-17T12:56:11;101297.45;;;20.48;43.35
54856;BME280;40748;53.168;5.800;2022-09-17T12:58:42;101298.24;;;20.11;43.83
54856;BME280;40748;53.168;5.800;2022-09-17T13:01:09;101291.86;;;19.98;43.70
54856;BME280;40748;53.168;5.800;2022-09-17T13:03:38;101294.42;;;19.72;44.59
54856;BME280;40748;53.168;5.800;2022-09-17T13:06:14;101301.45;;;19.86;44.21
54856;BME280;40748;53.168;5.800;2022-09-17T13:08:42;101303.81;;;19.68;44.63
54856;BME280;40748;53.168;5.800;2022-09-17T13:11:13;101299.33;;;19.73;44.87
54856;BME280;40748;53.168;5.800;2022-09-17T13:13:40;101311.83;;;19.57;45.04
54856;BME280;40748;53.168;5.800;2022-09-17T13:16:08;101327.01;;;19.54;45.09
54856;BME280;40748;53.168;5.800;2022-09-17T13:18:38;101313.56;;;19.10;45.27
54856;BME280;40748;53.168;5.800;2022-09-17T13:21:09;101316.0;;;18.83;45.67